Time;durP1;ratioP1;P1;durP2;ratioP2;P2;SDS_P1;SDS_P2;PMS_P1;PMS_P2;Temp;Humidity;BMP_temperature;BMP_pressure;BME280_temperature;BME280_humidity;BME280_pressure;Samples;Min_cycle;Max_cycle;Signal;HPM_P1;HPM_P2
2021/08/21 00:01:10;;;;;;;6.10;5.33;;;22.90;58.00;;;;;;4974435;28;20253;-47
2021/08/21 00:03:37;;;;;;;6.40;5.80;;;22.90;58.30;;;;;;4973676;28;20199;-47
2021/08/21 00:06:03;;;;;;;5.90;5.27;;;22.80;58.20;;;;;;4973758;28;20274;-47
2021/08/21 00:08:28;;;;;;;6.20;5.37;;;22.90;58.10;;;;;;4973285;28;20427;-48
2021/08/21 00:10:54;;;;;;;7.30;6.60;;;22.80;58.00;;;;;;4974168;28;20576;-47
2021/08/21 00:13:20;;;;;;;6.33;5.73;;;22.80;58.00;;;;;;4977354;28;20245;-47
2021/08/21 00:15:46;;;;;;;6.73;6.13;;;22.90;58.10;;;;;;4992425;28;20205;-47
2021/08/21 00:18:12;;;;;;;7.07;5.20;;;22.80;58.00;;;;;;4989643;28;20191;-47
2021/08/21 00:20:37;;;;;;;5.70;5.20;;;22.80;58.10;;;;;;4993409;28;20788;-47
2021/08/21 00:23:03;;;;;;;5.63;5.13;;;22.80;58.20;;;;;;4992537;28;20677;-47
2021/08/21 00:25:29;;;;;;;5.80;5.30;;;22.80;58.30;;;;;;4991449;28;20191;-48
2021/08/21 00:27:54;;;;;;;6.33;5.23;;;22.80;58.30;;;;;;4992501;28;20191;-47
2021/08/21 00:30:20;;;;;;;5.80;5.20;;;22.80;58.20;;;;;;4993288;28;20244;-48
2021/08/21 00:32:45;;;;;;;6.77;6.17;;;22.80;58.10;;;;;;4992291;28;20198;-47
2021/08/21 00:35:12;;;;;;;8.63;5.00;;;22.80;58.10;;;;;;4992667;28;20572;-48
2021/08/21 00:37:38;;;;;;;5.37;4.87;;;22.60;58.80;;;;;;4992297;28;20194;-48
2021/08/21 00:40:05;;;;;;;6.33;5.73;;;22.20;59.60;;;;;;4993109;28;20543;-47
2021/08/21 00:42:31;;;;;;;6.37;5.77;;;22.10;60.00;;;;;;4992353;28;20689;-47
2021/08/21 00:44:57;;;;;;;6.10;5.50;;;22.10;59.90;;;;;;4992714;28;20414;-47
2021/08/21 00:47:22;;;;;;;6.70;6.00;;;22.20;59.70;;;;;;4992350;28;20248;-50
2021/08/21 00:49:53;;;;;;;5.60;5.10;;;22.20;59.50;;;;;;4990684;28;20655;-47
2021/08/21 00:52:25;;;;;;;5.63;5.00;;;22.30;59.40;;;;;;4986654;28;20279;-47
2021/08/21 00:54:52;;;;;;;5.50;4.83;;;22.30;59.20;;;;;;4973070;28;20435;-48
2021/08/21 00:57:19;;;;;;;6.30;5.70;;;22.30;59.10;;;;;;4972581;28;20427;-48
2021/08/21 00:59:47;;;;;;;5.70;5.20;;;22.30;59.00;;;;;;4973295;28;20485;-47
2021/08/21 01:02:13;;;;;;;5.30;4.80;;;22.30;58.90;;;;;;4972655;28;20453;-48
2021/08/21 01:04:44;;;;;;;7.90;5.40;;;22.30;58.60;;;;;;4972978;28;20426;-48
2021/08/21 01:07:21;;;;;;;6.40;5.33;;;22.30;58.40;;;;;;4972307;28;20457;-47
2021/08/21 01:09:47;;;;;;;6.70;5.27;;;22.30;58.40;;;;;;4973073;28;20454;-47
2021/08/21 01:12:17;;;;;;;5.23;4.77;;;22.30;58.20;;;;;;4972541;28;20481;-47
2021/08/21 01:14:46;;;;;;;5.97;5.40;;;22.30;58.20;;;;;;4987661;28;20462;-49
2021/08/21 01:17:12;;;;;;;5.63;4.97;;;22.20;58.30;;;;;;4987638;28;20458;-48
2021/08/21 01:19:45;;;;;;;6.63;6.03;;;22.20;58.30;;;;;;4991170;28;20580;-47
2021/08/21 01:22:17;;;;;;;6.07;5.57;;;22.20;58.30;;;;;;4991804;28;20434;-48
2021/08/21 01:24:44;;;;;;;6.30;5.70;;;22.20;58.20;;;;;;4991700;28;20548;-47
2021/08/21 01:27:21;;;;;;;5.90;5.30;;;22.20;58.20;;;;;;4991792;28;20434;-49
2021/08/21 01:29:47;;;;;;;5.50;5.00;;;22.20;58.20;;;;;;4992157;28;20437;-47
2021/08/21 01:32:13;;;;;;;6.30;5.63;;;22.20;58.30;;;;;;4991427;28;20426;-47
2021/08/21 01:34:39;;;;;;;6.43;5.90;;;22.10;58.30;;;;;;4991845;28;20428;-47
2021/08/21 01:37:05;;;;;;;9.43;5.30;;;22.10;58.40;;;;;;4991793;28;20422;-47
2021/08/21 01:39:30;;;;;;;6.60;5.60;;;22.10;58.60;;;;;;4992235;28;20234;-47
2021/08/21 01:41:56;;;;;;;7.83;6.17;;;22.10;58.60;;;;;;4991356;28;20203;-48
2021/08/21 01:44:21;;;;;;;6.07;5.53;;;22.10;58.60;;;;;;4990724;28;20273;-47
2021/08/21 01:46:48;;;;;;;7.23;6.00;;;22.10;58.60;;;;;;4991472;28;20194;-47
2021/08/21 01:49:15;;;;;;;7.30;5.43;;;22.10;58.50;;;;;;4992080;28;20579;-47
2021/08/21 01:51:43;;;;;;;5.37;4.87;;;22.00;58.60;;;;;;4991626;28;20448;-48
2021/08/21 01:54:10;;;;;;;8.60;5.90;;;22.00;58.90;;;;;;4974055;28;20974;-47
2021/08/21 01:56:53;;;;;;;7.67;6.20;;;22.00;58.80;;;;;;4971551;28;20438;-47
2021/08/21 01:59:38;;;;;;;6.20;5.30;;;22.00;59.00;;;;;;4980074;28;20524;-47
2021/08/21 02:02:06;;;;;;;5.17;4.73;;;22.00;59.00;;;;;;4995212;28;20432;-47
2021/08/21 02:04:32;;;;;;;5.97;5.33;;;22.00;58.90;;;;;;4995506;28;20983;-47
2021/08/21 02:06:58;;;;;;;5.53;5.03;;;22.00;59.00;;;;;;4995216;28;20429;-47
2021/08/21 02:09:26;;;;;;;9.47;5.93;;;21.90;58.80;;;;;;4995449;28;20871;-47
2021/08/21 02:11:53;;;;;;;8.73;6.20;;;21.90;58.60;;;;;;4993478;28;20647;-47
2021/08/21 02:14:21;;;;;;;5.90;5.33;;;21.90;58.70;;;;;;4995622;28;20442;-47
2021/08/21 02:16:51;;;;;;;5.73;5.17;;;21.80;58.90;;;;;;4990798;28;20434;-47
2021/08/21 02:19:17;;;;;;;6.30;5.70;;;21.80;59.20;;;;;;4995202;28;20477;-47
2021/08/21 02:21:43;;;;;;;8.50;5.53;;;21.80;59.10;;;;;;4995039;28;20511;-48
2021/08/21 02:24:08;;;;;;;5.80;5.37;;;21.80;59.10;;;;;;4995639;28;20250;-47
2021/08/21 02:26:40;;;;;;;6.43;5.53;;;21.80;59.20;;;;;;4993498;28;20442;-47
2021/08/21 02:29:07;;;;;;;6.83;6.13;;;21.80;59.20;;;;;;4995432;28;20196;-47
2021/08/21 02:31:33;;;;;;;6.63;5.67;;;21.80;59.20;;;;;;4995122;28;20433;-47
2021/08/21 02:33:59;;;;;;;7.73;5.37;;;21.80;59.20;;;;;;4995701;28;20984;-47
2021/08/21 02:36:25;;;;;;;11.00;6.80;;;21.70;59.50;;;;;;4994632;28;20413;-47
2021/08/21 02:38:50;;;;;;;7.37;6.77;;;21.70;59.50;;;;;;4993154;28;20230;-47
2021/08/21 02:41:16;;;;;;;7.30;6.60;;;21.70;59.40;;;;;;4995213;28;20221;-48
2021/08/21 02:43:42;;;;;;;6.93;6.27;;;21.70;59.20;;;;;;4994733;28;20202;-47
2021/08/21 02:46:07;;;;;;;7.40;6.67;;;21.80;59.30;;;;;;4994579;28;20191;-48
2021/08/21 02:48:33;;;;;;;9.60;6.93;;;21.80;59.30;;;;;;4994577;28;20240;-47
2021/08/21 02:50:59;;;;;;;7.00;6.40;;;21.70;59.40;;;;;;4995026;28;20589;-47
2021/08/21 02:53:25;;;;;;;6.93;6.20;;;21.70;59.50;;;;;;4981705;28;20211;-47
2021/08/21 02:55:51;;;;;;;6.90;6.30;;;21.70;59.60;;;;;;4975046;28;20202;-47
2021/08/21 02:58:17;;;;;;;5.20;4.73;;;21.60;59.50;;;;;;4974749;28;20434;-51
2021/08/21 03:00:43;;;;;;;6.33;5.70;;;21.70;59.60;;;;;;4975088;28;20203;-48
2021/08/21 03:03:09;;;;;;;6.50;5.83;;;21.60;59.60;;;;;;4974295;28;20203;-48
2021/08/21 03:05:35;;;;;;;6.23;5.57;;;21.60;59.70;;;;;;4973923;28;20245;-49
2021/08/21 03:08:01;;;;;;;6.50;5.80;;;21.60;59.70;;;;;;4974689;28;21246;-48
2021/08/21 03:10:26;;;;;;;9.20;5.97;;;21.60;59.70;;;;;;4975067;28;20427;-47
2021/08/21 03:12:52;;;;;;;8.00;5.40;;;21.60;59.80;;;;;;4974312;28;20750;-48
2021/08/21 03:15:18;;;;;;;5.93;5.40;;;21.60;60.10;;;;;;4994162;28;20195;-49
2021/08/21 03:17:43;;;;;;;5.90;5.30;;;21.50;60.30;;;;;;4989877;28;20660;-47
2021/08/21 03:20:09;;;;;;;6.23;5.57;;;21.50;60.50;;;;;;4994434;28;20580;-47
2021/08/21 03:22:35;;;;;;;8.00;5.60;;;21.40;60.80;;;;;;4993887;28;20709;-47
2021/08/21 03:25:01;;;;;;;6.33;5.50;;;21.30;61.20;;;;;;4994245;28;20522;-48
2021/08/21 03:27:26;;;;;;;7.00;5.13;;;21.30;61.30;;;;;;4993652;28;20277;-47
2021/08/21 03:29:52;;;;;;;6.43;5.63;;;21.40;61.30;;;;;;4992804;28;20278;-51
2021/08/21 03:32:18;;;;;;;5.90;5.40;;;21.30;61.00;;;;;;4981563;28;20202;-48
2021/08/21 03:34:44;;;;;;;6.00;5.37;;;21.30;61.00;;;;;;4974508;28;20563;-47
2021/08/21 03:37:11;;;;;;;8.13;5.07;;;21.40;61.10;;;;;;4974301;28;20540;-47
2021/08/21 03:39:38;;;;;;;5.67;5.20;;;21.40;61.00;;;;;;4974559;28;20953;-47
2021/08/21 03:42:04;;;;;;;5.77;5.20;;;21.40;60.70;;;;;;4973991;28;20438;-48
2021/08/21 03:44:30;;;;;;;5.33;4.93;;;21.40;60.60;;;;;;4974069;28;20425;-47
2021/08/21 03:46:56;;;;;;;7.07;5.83;;;21.40;61.10;;;;;;4973800;28;20462;-47
2021/08/21 03:49:21;;;;;;;6.40;5.80;;;21.30;61.40;;;;;;4974742;28;20194;-47
2021/08/21 03:51:47;;;;;;;6.30;5.70;;;21.30;61.60;;;;;;4981128;28;20194;-47
2021/08/21 03:54:13;;;;;;;6.40;5.70;;;21.30;61.50;;;;;;4974609;28;20274;-47
2021/08/21 03:56:38;;;;;;;5.43;4.93;;;21.30;61.30;;;;;;4971830;28;20274;-47
2021/08/21 03:59:04;;;;;;;6.37;5.67;;;21.30;61.50;;;;;;4974383;28;20266;-47
2021/08/21 04:01:30;;;;;;;5.83;5.23;;;21.20;61.30;;;;;;4974152;28;20195;-47
2021/08/21 04:03:56;;;;;;;6.07;5.47;;;21.20;61.20;;;;;;4973979;28;20187;-47
2021/08/21 04:06:21;;;;;;;5.63;5.13;;;21.30;61.10;;;;;;4973762;28;20807;-48
2021/08/21 04:08:47;;;;;;;6.07;4.97;;;21.20;61.00;;;;;;4973653;28;20191;-47
2021/08/21 04:11:13;;;;;;;5.73;5.00;;;21.30;61.30;;;;;;4974041;28;20282;-48
2021/08/21 04:13:38;;;;;;;6.33;5.73;;;21.20;61.20;;;;;;4980188;28;20203;-47
2021/08/21 04:16:04;;;;;;;6.30;5.70;;;21.20;61.10;;;;;;4990103;28;20222;-46
2021/08/21 04:18:29;;;;;;;6.40;5.83;;;21.20;61.60;;;;;;4991524;28;20218;-47
2021/08/21 04:20:55;;;;;;;5.50;5.10;;;21.10;61.70;;;;;;4993344;28;20198;-48
2021/08/21 04:23:21;;;;;;;5.83;5.33;;;21.10;62.00;;;;;;4990195;28;20199;-47
2021/08/21 04:25:46;;;;;;;5.93;5.43;;;21.10;62.10;;;;;;4991724;28;20198;-47
2021/08/21 04:28:12;;;;;;;6.13;5.00;;;21.10;62.00;;;;;;4992590;28;20198;-47
2021/08/21 04:30:38;;;;;;;5.90;5.30;;;21.10;62.00;;;;;;4993207;28;20191;-46
2021/08/21 04:33:03;;;;;;;5.90;5.30;;;21.10;61.90;;;;;;4992847;28;20198;-47
2021/08/21 04:35:29;;;;;;;7.83;5.27;;;21.10;62.10;;;;;;4993068;28;20195;-47
2021/08/21 04:37:54;;;;;;;6.40;5.53;;;21.10;62.30;;;;;;4992492;28;20191;-47
2021/08/21 04:40:21;;;;;;;6.00;4.90;;;21.10;62.30;;;;;;4992934;28;20324;-47
2021/08/21 04:42:47;;;;;;;6.10;5.60;;;21.10;62.10;;;;;;4992321;28;20202;-47
2021/08/21 04:45:13;;;;;;;5.10;4.63;;;21.10;61.80;;;;;;4992736;28;20492;-47
2021/08/21 04:47:39;;;;;;;6.17;5.57;;;21.10;61.40;;;;;;4992330;28;20454;-48
2021/08/21 04:50:06;;;;;;;5.73;5.23;;;21.20;61.40;;;;;;4991266;28;20476;-47
2021/08/21 04:52:31;;;;;;;6.30;5.40;;;21.10;61.00;;;;;;4987671;28;20643;-47
2021/08/21 04:54:58;;;;;;;6.53;5.73;;;21.10;61.00;;;;;;4972925;28;20431;-47
2021/08/21 04:57:24;;;;;;;6.37;5.67;;;21.10;61.10;;;;;;4972618;28;20191;-47
2021/08/21 04:59:49;;;;;;;9.87;6.10;;;21.10;61.60;;;;;;4973158;28;20518;-47
2021/08/21 05:02:16;;;;;;;6.00;5.47;;;21.00;62.20;;;;;;4972915;28;20651;-47
2021/08/21 05:04:42;;;;;;;6.07;5.47;;;20.80;62.70;;;;;;4971931;28;20249;-47
2021/08/21 05:07:08;;;;;;;9.33;6.20;;;20.60;63.70;;;;;;4972591;28;20431;-47
2021/08/21 05:09:33;;;;;;;6.90;5.77;;;20.30;65.10;;;;;;4973215;28;20215;-47
2021/08/21 05:11:59;;;;;;;7.03;5.70;;;20.00;66.00;;;;;;4972459;28;20497;-47
2021/08/21 05:14:25;;;;;;;10.07;5.47;;;19.80;67.10;;;;;;4985642;28;20194;-48
2021/08/21 05:16:51;;;;;;;5.87;5.27;;;19.90;67.30;;;;;;4985466;28;20284;-48
2021/08/21 05:19:34;;;;;;;6.23;5.40;;;19.90;67.40;;;;;;4992522;28;20230;-47
2021/08/21 05:22:20;;;;;;;5.53;5.10;;;19.60;68.50;;;;;;4991664;28;20725;-47
2021/08/21 05:24:45;;;;;;;5.67;4.90;;;19.60;68.60;;;;;;4991691;28;20449;-49
2021/08/21 05:27:10;;;;;;;6.43;5.70;;;19.80;68.20;;;;;;4991803;28;20797;-47
2021/08/21 05:29:36;;;;;;;6.20;5.60;;;19.90;68.00;;;;;;4992452;28;20244;-47
2021/08/21 05:32:02;;;;;;;6.93;5.60;;;20.10;68.00;;;;;;4991611;28;20206;-47
2021/08/21 05:34:28;;;;;;;6.37;5.77;;;19.80;68.50;;;;;;4992361;28;20608;-47
2021/08/21 05:36:53;;;;;;;5.90;5.40;;;19.60;69.10;;;;;;4995894;28;20198;-47
2021/08/21 05:39:19;;;;;;;6.00;4.40;;;19.50;70.30;;;;;;4996298;28;20724;-47
2021/08/21 05:41:44;;;;;;;6.53;5.93;;;19.70;70.00;;;;;;4995993;28;20250;-47
2021/08/21 05:44:10;;;;;;;5.93;5.33;;;19.80;69.00;;;;;;4994202;28;20191;-47
2021/08/21 05:46:35;;;;;;;5.33;4.77;;;19.80;68.70;;;;;;4995689;28;20190;-47
2021/08/21 05:49:01;;;;;;;5.90;5.30;;;19.90;68.80;;;;;;4996021;28;20221;-47
2021/08/21 05:51:29;;;;;;;6.37;5.63;;;19.90;69.20;;;;;;4994722;28;20198;-48
2021/08/21 05:53:55;;;;;;;6.13;5.63;;;19.80;69.70;;;;;;4979706;28;20672;-48
2021/08/21 05:56:21;;;;;;;5.40;5.00;;;20.10;69.20;;;;;;4976694;28;20422;-47
2021/08/21 05:58:47;;;;;;;5.83;5.33;;;20.30;68.10;;;;;;4976152;28;21078;-47
2021/08/21 06:01:12;;;;;;;6.27;5.10;;;20.60;67.50;;;;;;4977008;28;20678;-48
2021/08/21 06:03:38;;;;;;;6.00;5.50;;;20.80;67.00;;;;;;4975889;28;20195;-47
2021/08/21 06:06:04;;;;;;;5.43;5.03;;;20.90;66.60;;;;;;4975831;28;20195;-47
2021/08/21 06:08:29;;;;;;;5.27;4.87;;;21.10;65.80;;;;;;4974512;28;20238;-52
2021/08/21 06:10:57;;;;;;;6.00;5.40;;;21.30;65.20;;;;;;4975948;28;20674;-47
2021/08/21 06:13:23;;;;;;;5.70;4.83;;;21.30;64.40;;;;;;4979866;28;20241;-48
2021/08/21 06:15:49;;;;;;;11.03;5.70;;;21.50;64.30;;;;;;4994572;28;20428;-46
2021/08/21 06:18:14;;;;;;;7.13;5.03;;;21.50;64.10;;;;;;4991887;28;20434;-48
2021/08/21 06:20:40;;;;;;;6.57;4.73;;;21.50;64.30;;;;;;4995710;28;20194;-48
2021/08/21 06:23:06;;;;;;;6.70;4.90;;;21.70;64.10;;;;;;4995115;28;20198;-47
2021/08/21 06:25:31;;;;;;;5.50;4.90;;;21.80;63.50;;;;;;4995001;28;20194;-48
2021/08/21 06:27:58;;;;;;;6.10;5.00;;;22.00;63.20;;;;;;4994861;28;20634;-47
2021/08/21 06:30:23;;;;;;;5.33;4.77;;;22.10;62.60;;;;;;4995958;28;20200;-48
2021/08/21 06:32:49;;;;;;;6.00;5.40;;;22.20;61.60;;;;;;4995349;28;20444;-48
2021/08/21 06:35:14;;;;;;;4.87;4.37;;;22.10;61.80;;;;;;4992890;28;20203;-47
2021/08/21 06:37:40;;;;;;;4.43;4.03;;;22.00;62.20;;;;;;4994886;28;20694;-48
2021/08/21 06:40:07;;;;;;;6.23;4.70;;;22.00;61.90;;;;;;4995407;28;20697;-47
2021/08/21 06:42:32;;;;;;;6.50;4.60;;;22.00;62.00;;;;;;4994739;28;20218;-47
2021/08/21 06:44:58;;;;;;;8.07;4.60;;;22.10;61.90;;;;;;4994838;28;20461;-48
2021/08/21 06:47:24;;;;;;;8.67;4.80;;;22.10;62.10;;;;;;4993059;28;20194;-49
2021/08/21 06:49:49;;;;;;;8.13;5.30;;;22.30;62.00;;;;;;4994504;28;20218;-48
2021/08/21 06:52:15;;;;;;;7.43;4.70;;;22.40;61.60;;;;;;4990122;28;20202;-48
2021/08/21 06:54:40;;;;;;;5.73;4.83;;;22.50;61.60;;;;;;4974527;28;20191;-47
2021/08/21 06:57:06;;;;;;;4.40;4.10;;;22.80;61.30;;;;;;4974674;28;20271;-47
2021/08/21 06:59:32;;;;;;;5.30;3.93;;;22.80;60.20;;;;;;4975458;28;20223;-47
2021/08/21 07:01:57;;;;;;;5.23;4.73;;;22.90;60.00;;;;;;4972962;28;20199;-49
2021/08/21 07:04:23;;;;;;;5.73;4.93;;;23.00;59.60;;;;;;4975259;28;20187;-50
2021/08/21 07:06:48;;;;;;;4.90;4.40;;;22.90;59.40;;;;;;4974752;28;20246;-47
2021/08/21 07:09:14;;;;;;;5.70;5.20;;;22.70;59.80;;;;;;4975339;28;20191;-47
2021/08/21 07:11:39;;;;;;;5.33;4.93;;;22.60;60.40;;;;;;4974377;28;20231;-47
2021/08/21 07:14:05;;;;;;;5.43;4.30;;;22.60;60.70;;;;;;4984523;28;20194;-47
2021/08/21 07:16:31;;;;;;;4.57;4.17;;;22.70;60.50;;;;;;4990582;28;20213;-49
2021/08/21 07:18:56;;;;;;;5.30;4.80;;;22.80;59.70;;;;;;4994280;28;20222;-47
2021/08/21 07:21:23;;;;;;;4.87;4.37;;;23.00;60.40;;;;;;4994406;28;20214;-47
2021/08/21 07:23:48;;;;;;;10.03;4.80;;;23.10;59.40;;;;;;4993913;28;20209;-48
2021/08/21 07:26:14;;;;;;;6.00;4.50;;;23.50;59.00;;;;;;4992718;28;20811;-47
2021/08/21 07:28:40;;;;;;;4.37;4.07;;;23.60;58.60;;;;;;4992532;28;20207;-47
2021/08/21 07:31:05;;;;;;;4.80;4.40;;;23.80;58.10;;;;;;4994038;28;20277;-48
2021/08/21 07:33:31;;;;;;;6.13;5.40;;;24.00;57.40;;;;;;4993923;28;20201;-47
2021/08/21 07:35:57;;;;;;;4.60;4.03;;;24.30;57.40;;;;;;4993741;28;20287;-47
2021/08/21 07:38:23;;;;;;;5.27;4.87;;;24.60;57.20;;;;;;4993410;28;20195;-49
2021/08/21 07:40:50;;;;;;;4.43;4.03;;;25.00;55.90;;;;;;4993892;28;20190;-47
2021/08/21 07:43:15;;;;;;;8.07;4.90;;;25.30;55.20;;;;;;4993571;28;20289;-48
2021/08/21 07:45:42;;;;;;;4.50;4.10;;;25.00;54.70;;;;;;4993551;28;20866;-49
2021/08/21 07:48:08;;;;;;;5.17;4.77;;;24.90;55.10;;;;;;4993581;28;20667;-47
2021/08/21 07:50:34;;;;;;;4.60;4.10;;;25.10;55.20;;;;;;4992407;28;20445;-47
2021/08/21 07:52:59;;;;;;;4.40;4.00;;;25.40;54.80;;;;;;4984350;28;20198;-48
2021/08/21 07:55:25;;;;;;;5.13;4.67;;;25.70;53.90;;;;;;4972301;28;20282;-47
2021/08/21 07:57:51;;;;;;;4.17;3.80;;;25.80;53.40;;;;;;4973395;28;20266;-47
2021/08/21 08:00:16;;;;;;;5.60;4.03;;;25.90;53.10;;;;;;4974010;28;20226;-47
2021/08/21 08:02:44;;;;;;;4.93;4.47;;;26.10;52.90;;;;;;4973849;28;20202;-48
2021/08/21 08:05:09;;;;;;;3.80;3.50;;;26.50;52.50;;;;;;4973833;28;20473;-48
2021/08/21 08:07:35;;;;;;;5.63;5.13;;;26.60;51.90;;;;;;4973419;28;20934;-47
2021/08/21 08:10:00;;;;;;;4.20;3.77;;;26.80;51.30;;;;;;4974127;28;20195;-47
2021/08/21 08:12:26;;;;;;;4.43;4.03;;;27.00;51.80;;;;;;4973547;28;20306;-48
2021/08/21 08:14:52;;;;;;;6.07;4.60;;;27.10;51.30;;;;;;4990146;28;20273;-47
2021/08/21 08:17:17;;;;;;;4.40;4.10;;;27.30;50.90;;;;;;4988993;28;20191;-48
2021/08/21 08:19:43;;;;;;;3.70;3.40;;;27.40;50.40;;;;;;4992989;28;20284;-49
2021/08/21 08:22:08;;;;;;;5.07;4.50;;;27.20;50.40;;;;;;4991180;28;20195;-48
2021/08/21 08:24:34;;;;;;;4.00;3.70;;;27.30;49.90;;;;;;4992738;28;20253;-47
2021/08/21 08:26:59;;;;;;;3.80;3.50;;;27.60;50.10;;;;;;4992918;28;20266;-47
2021/08/21 08:29:25;;;;;;;4.47;4.07;;;27.90;50.10;;;;;;4993024;28;20195;-47
2021/08/21 08:31:51;;;;;;;4.50;4.10;;;28.00;48.50;;;;;;4992686;28;20209;-47
2021/08/21 08:34:16;;;;;;;5.53;4.07;;;28.20;48.50;;;;;;4992711;28;20722;-48
2021/08/21 08:36:42;;;;;;;4.27;3.93;;;28.40;48.80;;;;;;4992482;28;20613;-49
2021/08/21 08:39:07;;;;;;;4.20;3.80;;;28.50;48.40;;;;;;4992663;28;20218;-49
2021/08/21 08:41:34;;;;;;;3.70;3.40;;;28.60;47.70;;;;;;4992333;28;20206;-48
2021/08/21 08:44:01;;;;;;;4.23;3.83;;;28.80;47.40;;;;;;4992742;28;20212;-48
2021/08/21 08:46:27;;;;;;;5.13;3.97;;;28.80;46.60;;;;;;4992963;28;20898;-48
2021/08/21 08:48:54;;;;;;;4.13;3.73;;;28.80;46.80;;;;;;4990773;28;20453;-49
2021/08/21 08:51:21;;;;;;;5.30;3.83;;;28.90;46.90;;;;;;4992666;28;20206;-48
2021/08/21 08:53:46;;;;;;;4.33;4.03;;;29.10;47.00;;;;;;4975823;28;20427;-47
2021/08/21 08:56:13;;;;;;;4.07;3.77;;;29.30;46.30;;;;;;4973476;28;20434;-50
2021/08/21 08:58:39;;;;;;;4.37;3.97;;;29.50;46.60;;;;;;4972809;28;20223;-48
2021/08/21 09:01:05;;;;;;;5.10;4.17;;;29.60;46.00;;;;;;4973115;28;20430;-48
2021/08/21 09:03:32;;;;;;;4.63;4.23;;;29.70;46.10;;;;;;4972787;28;20222;-47
2021/08/21 09:05:58;;;;;;;4.87;3.87;;;29.80;45.00;;;;;;4972833;28;20443;-48
2021/08/21 09:08:30;;;;;;;5.57;4.10;;;29.90;44.80;;;;;;4972739;28;20433;-48
2021/08/21 09:11:18;;;;;;;5.00;4.50;;;30.10;44.60;;;;;;4972534;28;20202;-48
2021/08/21 09:13:43;;;;;;;7.73;4.53;;;30.20;44.80;;;;;;4978476;28;20957;-51
2021/08/21 09:16:09;;;;;;;6.63;4.17;;;30.20;45.00;;;;;;4988192;28;20786;-48
2021/08/21 09:18:35;;;;;;;4.80;4.40;;;30.50;44.80;;;;;;4991568;28;20195;-47
2021/08/21 09:21:03;;;;;;;4.23;3.93;;;30.70;44.10;;;;;;4992127;28;20274;-47
2021/08/21 09:23:36;;;;;;;4.93;4.00;;;30.90;44.30;;;;;;4991843;28;20190;-47
2021/08/21 09:26:39;;;;;;;4.37;3.97;;;30.90;43.80;;;;;;4992109;28;20446;-48
2021/08/21 09:29:04;;;;;;;4.43;4.03;;;31.10;43.50;;;;;;4991915;28;20449;-49
2021/08/21 09:31:33;;;;;;;7.43;4.83;;;31.20;43.00;;;;;;4992336;28;20426;-49
2021/08/21 09:34:11;;;;;;;4.67;4.37;;;31.30;42.60;;;;;;4992365;28;20518;-50
2021/08/21 09:36:42;;;;;;;5.33;4.90;;;31.50;43.80;;;;;;4991798;28;20441;-49
2021/08/21 09:39:13;;;;;;;5.00;4.50;;;31.70;42.50;;;;;;4991996;28;20571;-49
2021/08/21 09:41:54;;;;;;;4.57;4.17;;;31.70;42.20;;;;;;4990167;28;20493;-49
2021/08/21 09:44:29;;;;;;;4.53;4.13;;;31.70;43.20;;;;;;4991762;28;20488;-53
2021/08/21 09:47:23;;;;;;;5.40;4.90;;;31.90;43.00;;;;;;4991561;28;20500;-47
2021/08/21 09:49:50;;;;;;;4.87;4.47;;;32.00;41.40;;;;;;4992290;28;20446;-50
2021/08/21 09:52:17;;;;;;;5.30;4.90;;;31.80;41.50;;;;;;4988252;28;20849;-49
2021/08/21 09:54:59;;;;;;;4.60;4.20;;;31.90;41.60;;;;;;4972257;28;20453;-50
2021/08/21 09:57:25;;;;;;;5.00;4.60;;;32.10;42.10;;;;;;4971749;28;20497;-52
2021/08/21 09:59:57;;;;;;;5.07;4.20;;;32.20;41.20;;;;;;4973272;28;20478;-48
2021/08/21 10:02:24;;;;;;;7.37;4.73;;;32.10;40.80;;;;;;4971820;28;20234;-51
2021/08/21 10:04:50;;;;;;;8.13;4.30;;;32.30;41.10;;;;;;4972563;28;20465;-48
2021/08/21 10:07:19;;;;;;;4.30;4.00;;;31.90;41.20;;;;;;4970318;28;20844;-48
2021/08/21 10:09:45;;;;;;;4.50;4.10;;;32.20;42.10;;;;;;4972594;28;20210;-49
2021/08/21 10:12:12;;;;;;;4.97;4.57;;;32.40;40.80;;;;;;4971887;28;20529;-48
2021/08/21 10:14:43;;;;;;;4.90;4.50;;;32.60;40.90;;;;;;4986621;28;20425;-48
2021/08/21 10:17:09;;;;;;;4.97;4.50;;;32.90;39.90;;;;;;4987225;28;20438;-48
2021/08/21 10:19:38;;;;;;;7.07;4.73;;;33.20;40.70;;;;;;4991845;28;21011;-48
2021/08/21 10:22:04;;;;;;;6.33;4.80;;;33.20;38.40;;;;;;4994401;28;20445;-49
2021/08/21 10:24:37;;;;;;;6.00;5.23;;;33.20;38.90;;;;;;4995255;28;20517;-47
2021/08/21 10:27:15;;;;;;;4.43;4.03;;;33.40;38.70;;;;;;4994653;28;20929;-48
2021/08/21 10:30:07;;;;;;;5.10;3.90;;;33.70;37.80;;;;;;4995484;28;20467;-49
2021/08/21 10:32:33;;;;;;;4.20;3.90;;;33.90;36.80;;;;;;4994776;28;20838;-48
2021/08/21 10:34:59;;;;;;;5.17;4.20;;;33.90;36.20;;;;;;4993388;28;20979;-48
2021/08/21 10:37:44;;;;;;;4.77;4.37;;;34.20;36.70;;;;;;4994484;28;20426;-48
2021/08/21 10:40:28;;;;;;;5.37;4.50;;;34.40;36.50;;;;;;4995215;28;20233;-48
2021/08/21 10:42:57;;;;;;;5.80;5.10;;;34.50;36.00;;;;;;4994537;28;20444;-50
2021/08/21 10:45:42;;;;;;;6.27;4.30;;;34.70;35.60;;;;;;4994579;28;20558;-51
2021/08/21 10:48:26;;;;;;;5.33;4.83;;;34.50;35.60;;;;;;4994875;28;20450;-48
2021/08/21 10:50:52;;;;;;;5.10;4.70;;;34.80;36.20;;;;;;4995157;28;20515;-48
2021/08/21 10:53:28;;;;;;;5.10;4.70;;;34.90;35.20;;;;;;4982962;28;20911;-49
2021/08/21 10:55:55;;;;;;;5.80;5.20;;;34.60;34.60;;;;;;4974915;28;20298;-48
2021/08/21 10:58:22;;;;;;;4.60;4.20;;;34.60;35.60;;;;;;4975144;28;20488;-48
2021/08/21 11:00:56;;;;;;;4.97;4.53;;;34.70;35.80;;;;;;4980635;28;20425;-48
2021/08/21 11:03:24;;;;;;;5.60;5.20;;;34.90;35.80;;;;;;4994270;28;20488;-48
2021/08/21 11:06:03;;;;;;;5.47;4.97;;;34.70;34.50;;;;;;4994495;28;20487;-49
2021/08/21 11:08:31;;;;;;;7.10;5.57;;;34.90;34.40;;;;;;4994185;28;20442;-48
2021/08/21 11:11:19;;;;;;;5.50;4.97;;;35.10;34.30;;;;;;4994983;28;20418;-49
2021/08/21 11:14:00;;;;;;;6.97;6.00;;;35.20;33.80;;;;;;4993341;28;20442;-48
2021/08/21 11:16:51;;;;;;;5.80;5.30;;;35.30;34.00;;;;;;4990707;28;20805;-48
2021/08/21 11:19:34;;;;;;;7.97;5.50;;;35.40;34.20;;;;;;4994437;28;20489;-48
2021/08/21 11:22:12;;;;;;;5.70;5.27;;;35.30;34.50;;;;;;4993988;28;20460;-48
2021/08/21 11:24:57;;;;;;;5.63;5.23;;;35.50;35.30;;;;;;4993988;28;20564;-48
2021/08/21 11:27:22;;;;;;;6.17;5.67;;;35.60;33.80;;;;;;4992160;28;20441;-52
2021/08/21 11:32:42;;;;;;;6.37;5.77;;;35.70;33.50;;;;;;4993204;28;20206;-50
2021/08/21 11:35:07;;;;;;;6.00;5.50;;;35.50;34.00;;;;;;4993732;28;20925;-51
2021/08/21 11:37:37;;;;;;;6.10;5.70;;;35.60;34.00;;;;;;4993558;28;20433;-49
2021/08/21 11:40:03;;;;;;;6.27;5.70;;;35.70;33.50;;;;;;4994051;28;20226;-53
2021/08/21 11:42:48;;;;;;;7.00;6.40;;;35.60;34.30;;;;;;4993365;28;20438;-50
2021/08/21 11:45:15;;;;;;;6.20;5.60;;;35.40;33.30;;;;;;4994060;28;20465;-52
2021/08/21 11:47:40;;;;;;;7.43;6.73;;;35.40;33.90;;;;;;4993143;28;20837;-52
2021/08/21 11:50:22;;;;;;;5.70;5.30;;;35.60;33.50;;;;;;4994308;28;20434;-45
2021/08/21 11:52:49;;;;;;;5.87;5.37;;;35.50;33.70;;;;;;4984109;28;20191;-47
2021/08/21 11:55:15;;;;;;;5.57;5.17;;;35.40;33.40;;;;;;4974147;28;20442;-46
2021/08/21 11:57:42;;;;;;;7.10;6.10;;;35.60;33.80;;;;;;4974163;28;20423;-46
2021/08/21 12:00:26;;;;;;;6.83;6.33;;;35.80;33.80;;;;;;4974129;28;20490;-46
2021/08/21 12:02:57;;;;;;;6.20;5.70;;;35.70;33.80;;;;;;4973973;28;20439;-46
2021/08/21 12:05:38;;;;;;;6.17;5.77;;;35.90;33.70;;;;;;4974222;28;20435;-46
2021/08/21 12:08:19;;;;;;;6.10;5.50;;;36.20;34.60;;;;;;4973678;28;20481;-46
2021/08/21 12:11:05;;;;;;;5.67;5.17;;;36.40;32.40;;;;;;4974385;28;20442;-46
2021/08/21 12:13:33;;;;;;;5.87;5.40;;;36.60;32.40;;;;;;4978422;28;20473;-47
2021/08/21 12:16:16;;;;;;;6.23;5.73;;;36.80;32.20;;;;;;4991183;28;20441;-46
2021/08/21 12:18:46;;;;;;;5.97;5.47;;;36.70;31.30;;;;;;4980595;28;20425;-47
2021/08/21 12:21:20;;;;;;;5.57;5.23;;;36.30;32.10;;;;;;4991720;28;20434;-45
2021/08/21 12:23:48;;;;;;;7.33;5.77;;;36.50;32.30;;;;;;4992219;28;20448;-47
2021/08/21 12:26:14;;;;;;;5.73;5.30;;;36.70;33.10;;;;;;4993276;28;20426;-48
2021/08/21 12:28:45;;;;;;;5.70;5.30;;;36.70;32.70;;;;;;4992760;28;20570;-47
2021/08/21 12:31:16;;;;;;;5.30;4.90;;;36.70;31.10;;;;;;4992992;28;20911;-49
2021/08/21 12:33:44;;;;;;;5.90;5.33;;;36.80;31.30;;;;;;4992096;28;20438;-46
2021/08/21 12:36:22;;;;;;;5.77;5.27;;;36.90;31.30;;;;;;4993136;28;20464;-47
2021/08/21 12:39:11;;;;;;;5.90;5.40;;;36.90;31.00;;;;;;4992390;28;20536;-48
2021/08/21 12:42:05;;;;;;;6.00;5.50;;;36.50;30.70;;;;;;4991125;28;20961;-46
2021/08/21 12:44:34;;;;;;;6.30;5.70;;;36.40;30.40;;;;;;4991845;28;20964;-46
2021/08/21 12:47:05;;;;;;;5.57;5.07;;;36.30;30.90;;;;;;4990695;28;20434;-47
2021/08/21 12:49:43;;;;;;;6.43;5.10;;;36.30;30.40;;;;;;4992869;28;20960;-46
2021/08/21 12:52:20;;;;;;;5.40;4.90;;;36.10;30.50;;;;;;4989355;28;20439;-50
2021/08/21 12:54:55;;;;;;;5.50;5.00;;;36.00;30.50;;;;;;4973028;28;20890;-50